Time;durP1;ratioP1;P1;durP2;ratioP2;P2;SDS_P1;SDS_P2;PMS_P1;PMS_P2;Temp;Humidity;BMP_temperature;BMP_pressure;BME280_temperature;BME280_humidity;BME280_pressure;Samples;Min_cycle;Max_cycle;Signal;HPM_P1;HPM_P2
2023/03/02 00:01:08;;;;;;;32.85;17.35;;;;;;;-0.30;89.96;102626.69;5075044;28;20517;-76
2023/03/02 00:03:37;;;;;;;31.30;16.85;;;;;;;-0.31;90.41;102617.28;5075010;28;20485;-75
2023/03/02 00:06:06;;;;;;;32.97;18.00;;;;;;;-0.33;90.87;102624.69;5073182;28;20437;-76
2023/03/02 00:08:33;;;;;;;34.40;16.70;;;;;;;-0.35;91.22;102629.47;5074015;28;20135;-76
2023/03/02 00:11:00;;;;;;;31.40;18.05;;;;;;;-0.36;91.25;102620.88;5075025;28;20045;-76
2023/03/02 00:13:31;;;;;;;31.55;17.52;;;;;;;-0.38;91.96;102620.41;5074877;28;20052;-75
2023/03/02 00:15:57;;;;;;;34.13;18.52;;;;;;;-0.41;92.36;102615.84;5074828;28;20041;-76
2023/03/02 00:18:24;;;;;;;32.63;18.00;;;;;;;-0.40;93.13;102617.34;5074542;28;20502;-75
2023/03/02 00:20:51;;;;;;;33.88;18.35;;;;;;;-0.39;93.21;102612.88;5074855;28;20045;-75
2023/03/02 00:23:17;;;;;;;31.02;17.00;;;;;;;-0.40;93.88;102612.13;5073712;28;20083;-76
2023/03/02 00:25:44;;;;;;;37.60;19.20;;;;;;;-0.41;94.35;102613.22;5075308;28;20160;-76
2023/03/02 00:28:11;;;;;;;36.47;19.05;;;;;;;-0.42;94.70;102606.47;5074164;28;20044;-76
2023/03/02 00:30:38;;;;;;;36.75;19.02;;;;;;;-0.43;95.05;102609.41;5074398;28;20494;-76
2023/03/02 00:33:04;;;;;;;32.03;18.17;;;;;;;-0.44;95.52;102605.25;5074204;28;20425;-76
2023/03/02 00:35:36;;;;;;;34.83;18.55;;;;;;;-0.42;95.87;102613.53;5074495;28;20457;-76
2023/03/02 00:38:02;;;;;;;37.35;19.45;;;;;;;-0.43;96.35;102612.00;5072360;28;20049;-76
2023/03/02 00:40:29;;;;;;;34.35;18.60;;;;;;;-0.45;96.31;102607.09;5074647;28;20041;-76
2023/03/02 00:42:55;;;;;;;39.30;19.77;;;;;;;-0.45;97.01;102614.94;5074548;28;20052;-76
2023/03/02 00:45:22;;;;;;;45.30;20.05;;;;;;;-0.45;97.68;102609.72;5072238;28;20414;-76
2023/03/02 00:47:48;;;;;;;40.75;19.27;;;;;;;-0.44;97.64;102605.25;5074700;28;20045;-76
2023/03/02 00:50:15;;;;;;;34.78;17.90;;;;;;;-0.46;98.08;102608.19;5072284;28;20049;-76
2023/03/02 00:52:42;;;;;;;37.25;19.05;;;;;;;-0.47;98.25;102606.66;5073819;28;20037;-76
2023/03/02 00:55:08;;;;;;;36.72;18.83;;;;;;;-0.46;98.44;102607.41;5072741;28;20059;-76
2023/03/02 00:57:35;;;;;;;35.72;18.40;;;;;;;-0.48;98.94;102606.97;5074310;28;20498;-76
2023/03/02 01:00:09;;;;;;;38.80;19.95;;;;;;;-0.48;98.60;102607.72;5072398;28;20053;-79
2023/03/02 01:02:42;;;;;;;42.30;19.23;;;;;;;-0.50;99.01;102612.50;5072892;28;20045;-76
2023/03/02 01:05:13;;;;;;;35.30;18.02;;;;;;;-0.49;99.44;102602.81;5072315;28;20052;-75
2023/03/02 01:07:39;;;;;;;41.72;18.85;;;;;;;-0.50;99.50;102609.91;5073737;28;20115;-76
2023/03/02 01:10:07;;;;;;;42.22;18.92;;;;;;;-0.50;99.60;102609.13;5073668;28;20149;-75
2023/03/02 01:12:33;;;;;;;42.72;19.88;;;;;;;-0.51;100.00;102602.38;5072232;28;20049;-75
2023/03/02 01:15:01;;;;;;;37.38;18.15;;;;;;;-0.53;99.84;102602.69;5072495;28;20482;-76
2023/03/02 01:17:27;;;;;;;42.42;19.75;;;;;;;-0.55;99.91;102604.84;5072381;28;20564;-76
2023/03/02 01:19:55;;;;;;;37.55;18.92;;;;;;;-0.55;99.83;102607.47;5072636;28;20072;-75
2023/03/02 01:22:22;;;;;;;38.92;19.33;;;;;;;-0.55;100.00;102596.22;5072802;28;20045;-76
2023/03/02 01:24:49;;;;;;;38.78;19.63;;;;;;;-0.56;100.00;102605.94;5055775;28;20084;-75
2023/03/02 01:27:15;;;;;;;40.13;18.80;;;;;;;-0.56;100.00;102603.31;5074953;28;20049;-75
2023/03/02 01:29:42;;;;;;;42.35;18.83;;;;;;;-0.55;100.00;102598.84;5074448;28;20057;-75
2023/03/02 01:32:08;;;;;;;38.95;18.85;;;;;;;-0.56;100.00;102597.31;5074906;28;20041;-75
2023/03/02 01:34:36;;;;;;;36.67;19.17;;;;;;;-0.57;100.00;102593.16;5074332;28;20040;-76
2023/03/02 01:37:04;;;;;;;39.67;18.15;;;;;;;-0.56;100.00;102589.47;5071411;28;20052;-75
2023/03/02 01:39:31;;;;;;;38.78;19.83;;;;;;;-0.57;100.00;102587.94;5073465;28;20048;-76
2023/03/02 01:41:57;;;;;;;37.17;18.02;;;;;;;-0.59;100.00;102577.78;5072101;28;20494;-75
2023/03/02 01:44:39;;;;;;;36.17;18.98;;;;;;;-0.59;100.00;102577.78;5073429;28;20041;-76
2023/03/02 01:47:17;;;;;;;;;;;;;;;-0.58;100.00;102576.69;5072515;28;20102;-76
2023/03/02 01:49:55;;;;;;;34.30;16.73;;;;;;;-0.59;100.00;102588.25;5105748;28;19924;-76
2023/03/02 01:52:25;;;;;;;37.83;17.35;;;;;;;-0.61;100.00;102579.94;5071695;28;20521;-76
2023/03/02 01:54:56;;;;;;;37.75;17.95;;;;;;;-0.62;100.00;102581.03;5073384;28;20556;-76
2023/03/02 01:57:29;;;;;;;39.08;19.75;;;;;;;-0.65;100.00;102583.50;5070528;28;20127;-75
2023/03/02 02:00:00;;;;;;;42.05;18.02;;;;;;;-0.67;100.00;102584.59;5071661;28;20127;-76
2023/03/02 02:02:40;;;;;;;41.83;19.13;;;;;;;-0.67;100.00;102586.44;5071207;28;20088;-76
2023/03/02 02:05:10;;;;;;;35.97;18.58;;;;;;;-0.68;100.00;102584.91;5071428;28;20052;-76
2023/03/02 02:07:38;;;;;;;36.20;17.55;;;;;;;-0.71;100.00;102581.09;5055153;28;20049;-76
2023/03/02 02:10:06;;;;;;;38.90;18.92;;;;;;;-0.72;100.00;102582.16;5071105;28;20567;-76
2023/03/02 02:12:33;;;;;;;39.65;19.40;;;;;;;-0.73;100.00;102582.47;5072652;28;20045;-76
2023/03/02 02:15:01;;;;;;;45.83;18.85;;;;;;;-0.75;100.00;102576.81;5092090;28;20469;-76
2023/03/02 02:17:28;;;;;;;35.97;17.30;;;;;;;-0.77;100.00;102576.34;5090250;28;20132;-77
2023/03/02 02:20:06;;;;;;;37.88;18.45;;;;;;;-0.76;100.00;102573.41;5092463;28;20474;-76
2023/03/02 02:22:47;;;;;;;35.28;17.10;;;;;;;-0.77;100.00;102564.03;5091183;28;20044;-76
2023/03/02 02:25:23;;;;;;;;;;;;;;;-0.78;100.00;102562.50;5093387;28;20047;-76
2023/03/02 02:27:50;;;;;;;30.90;15.50;;;;;;;-0.77;100.00;102565.88;5091868;28;19935;-76
2023/03/02 02:30:19;;;;;;;32.65;15.75;;;;;;;-0.78;100.00;102567.75;5074163;28;20543;-76
2023/03/02 02:32:48;;;;;;;38.03;18.25;;;;;;;-0.78;100.00;102556.50;5091483;28;20067;-76
2023/03/02 02:35:23;;;;;;;35.15;16.90;;;;;;;-0.78;100.00;102567.75;5091873;28;20041;-76
2023/03/02 02:37:54;;;;;;;36.45;17.38;;;;;;;-0.78;100.00;102570.34;5091718;28;20098;-76
2023/03/02 02:40:39;;;;;;;40.35;17.33;;;;;;;-0.79;100.00;102568.06;5091220;28;20076;-76
2023/03/02 02:43:11;;;;;;;39.95;18.42;;;;;;;-0.80;100.00;102561.31;5074689;28;20052;-76
2023/03/02 02:45:38;;;;;;;36.10;18.33;;;;;;;-0.80;100.00;102564.66;5091839;28;20033;-76
2023/03/02 02:48:07;;;;;;;33.30;16.70;;;;;;;-0.81;100.00;102550.09;5090839;28;20080;-76
2023/03/02 02:50:34;;;;;;;39.80;17.90;;;;;;;-0.81;100.00;102557.94;5092732;28;20111;-75
2023/03/02 02:53:15;;;;;;;32.05;16.55;;;;;;;-0.81;100.00;102552.72;5092535;28;20490;-78
2023/03/02 02:55:43;;;;;;;39.88;18.05;;;;;;;-0.81;100.00;102550.09;5091438;28;20059;-77
2023/03/02 02:58:26;;;;;;;35.08;17.67;;;;;;;-0.81;100.00;102554.56;5090626;28;20056;-76
2023/03/02 03:00:54;;;;;;;37.47;17.80;;;;;;;-0.84;100.00;102545.50;5092818;28;20622;-77
2023/03/02 03:03:31;;;;;;;39.28;17.38;;;;;;;-0.83;100.00;102547.03;5090326;28;20083;-77
2023/03/02 03:06:04;;;;;;;32.20;16.52;;;;;;;-0.84;100.00;102539.50;5091142;28;20079;-76
2023/03/02 03:08:40;;;;;;;39.08;17.92;;;;;;;-0.86;100.00;102547.66;5091371;28;20048;-76
2023/03/02 03:11:23;;;;;;;35.17;16.85;;;;;;;-0.88;100.00;102552.44;5092529;28;20033;-76
2023/03/02 03:14:12;;;;;;;35.28;17.15;;;;;;;-0.89;100.00;102542.28;5091229;28;20498;-76
2023/03/02 03:16:40;;;;;;;34.72;17.02;;;;;;;-0.90;100.00;102548.59;5090958;28;20075;-76
2023/03/02 03:19:19;;;;;;;30.85;16.05;;;;;;;-0.90;100.00;102548.59;5089943;28;20488;-77
2023/03/02 03:21:50;;;;;;;31.15;16.52;;;;;;;-0.92;100.00;102542.94;5091153;28;20045;-76
2023/03/02 03:24:18;;;;;;;35.10;17.07;;;;;;;-0.94;100.00;102542.47;5091259;28;20048;-77
2023/03/02 03:26:46;;;;;;;35.20;16.92;;;;;;;-0.94;100.00;102537.25;5091725;28;20557;-76
2023/03/02 03:29:14;;;;;;;31.42;15.77;;;;;;;-0.95;100.00;102533.88;5092537;28;20064;-75
2023/03/02 03:31:41;;;;;;;30.98;15.85;;;;;;;-0.96;100.00;102531.56;5090783;28;20055;-75
2023/03/02 03:34:09;;;;;;;34.63;17.02;;;;;;;-0.95;100.00;102528.63;5091706;28;20170;-75
2023/03/02 03:36:36;;;;;;;36.08;16.30;;;;;;;-0.96;100.00;102528.94;5092071;28;20040;-76
2023/03/02 03:39:04;;;;;;;32.17;15.50;;;;;;;-0.98;100.00;102526.66;5090141;28;20151;-76
2023/03/02 03:41:31;;;;;;;30.90;15.82;;;;;;;-0.99;100.00;102532.19;5090467;28;20094;-76
2023/03/02 03:43:58;;;;;;;31.27;16.02;;;;;;;-1.00;100.00;102531.44;5090635;28;20049;-76
2023/03/02 03:46:27;;;;;;;32.60;16.63;;;;;;;-1.01;100.00;102525.44;5089906;28;20390;-76
2023/03/02 03:48:54;;;;;;;29.88;15.25;;;;;;;-1.01;100.00;102535.13;5090427;28;20340;-77
2023/03/02 03:51:22;;;;;;;31.15;15.60;;;;;;;-1.02;100.00;102536.97;5091696;28;20079;-76
2023/03/02 03:53:58;;;;;;;35.97;16.70;;;;;;;-1.02;100.00;102538.81;5074220;28;20053;-76
2023/03/02 03:56:32;;;;;;;30.77;14.75;;;;;;;-1.04;100.00;102536.53;5090335;28;20049;-76
2023/03/02 03:59:06;;;;;;;29.83;16.00;;;;;;;-1.05;100.00;102536.84;5092416;28;20539;-77
2023/03/02 04:01:44;;;;;;;26.67;14.30;;;;;;;-1.05;100.00;102540.22;5090032;28;20051;-76
2023/03/02 04:04:14;;;;;;;29.92;15.10;;;;;;;-1.06;100.00;102541.31;5073087;28;20047;-76
2023/03/02 04:06:42;;;;;;;31.08;15.43;;;;;;;-1.05;100.00;102539.44;5090002;28;20052;-76
2023/03/02 04:09:10;;;;;;;29.50;14.55;;;;;;;-1.05;100.00;102542.84;5089238;28;20080;-76
2023/03/02 04:11:40;;;;;;;29.67;15.40;;;;;;;-1.02;100.00;102547.44;5091984;28;20041;-75
2023/03/02 04:14:07;;;;;;;29.73;16.52;;;;;;;-1.00;100.00;102547.13;5089974;28;20049;-75
2023/03/02 04:16:35;;;;;;;25.02;14.30;;;;;;;-0.99;100.00;102542.66;5089905;28;20044;-73
2023/03/02 04:19:03;;;;;;;26.77;14.00;;;;;;;-0.98;100.00;102542.34;5091385;28;20045;-75
2023/03/02 04:21:30;;;;;;;36.38;14.73;;;;;;;-1.01;100.00;102533.28;5092923;28;20055;-75
2023/03/02 04:23:56;;;;;;;30.83;15.65;;;;;;;-1.02;100.00;102530.97;5093717;28;20095;-74
2023/03/02 04:26:25;;;;;;;31.40;15.20;;;;;;;-1.03;100.00;102538.06;5093093;28;20399;-75
2023/03/02 04:28:51;;;;;;;30.05;15.30;;;;;;;-1.03;100.00;102537.28;5093592;28;20048;-75
2023/03/02 04:31:19;;;;;;;28.55;15.60;;;;;;;-1.04;100.00;102536.53;5092483;28;20142;-75
2023/03/02 04:33:45;;;;;;;30.67;15.00;;;;;;;-1.03;100.00;102542.50;5092908;28;20118;-74
2023/03/02 04:36:12;;;;;;;30.05;14.77;;;;;;;-1.04;100.00;102538.38;5093983;28;20110;-75
2023/03/02 04:38:39;;;;;;;30.55;15.57;;;;;;;-1.04;100.00;102543.59;5093577;28;20056;-75
2023/03/02 04:41:06;;;;;;;31.33;14.95;;;;;;;-1.04;100.00;102540.97;5093266;28;20485;-75
2023/03/02 04:43:33;;;;;;;30.10;15.13;;;;;;;-1.04;100.00;102543.59;5094630;28;20079;-75
2023/03/02 04:46:00;;;;;;;31.25;15.05;;;;;;;-1.06;100.00;102541.31;5094457;28;20044;-75
2023/03/02 04:48:26;;;;;;;30.77;15.80;;;;;;;-1.08;100.00;102543.47;5094518;28;20469;-74
2023/03/02 04:50:53;;;;;;;35.13;15.25;;;;;;;-1.10;100.00;102543.00;5092761;28;20520;-74
2023/03/02 04:53:20;;;;;;;33.25;16.35;;;;;;;-1.12;100.00;102542.56;5092602;28;20505;-74
2023/03/02 04:55:46;;;;;;;30.45;14.23;;;;;;;-1.14;100.00;102544.72;5093488;28;20098;-74
2023/03/02 04:58:13;;;;;;;27.52;14.48;;;;;;;-1.16;100.00;102543.50;5093992;28;20545;-74
2023/03/02 05:00:40;;;;;;;30.98;16.30;;;;;;;-1.17;100.00;102549.81;5093169;28;20091;-74
2023/03/02 05:03:07;;;;;;;31.45;14.43;;;;;;;-1.19;100.00;102550.13;5092774;28;20041;-74
2023/03/02 05:05:33;;;;;;;31.83;15.10;;;;;;;-1.22;100.00;102532.47;5094501;28;20087;-75
2023/03/02 05:08:00;;;;;;;30.42;14.65;;;;;;;-1.23;100.00;102532.78;5094527;28;20575;-74
2023/03/02 05:10:27;;;;;;;27.08;14.05;;;;;;;-1.25;100.00;102538.34;5094192;28;20477;-74
2023/03/02 05:12:54;;;;;;;28.50;13.45;;;;;;;-1.26;100.00;102530.81;5092488;28;20044;-74
2023/03/02 05:15:22;;;;;;;32.22;15.65;;;;;;;-1.27;100.00;102534.50;5093875;28;20040;-74
2023/03/02 05:17:48;;;;;;;26.98;14.90;;;;;;;-1.29;100.00;102529.59;5093708;28;20098;-74
2023/03/02 05:20:16;;;;;;;29.67;14.65;;;;;;;-1.32;100.00;102534.69;5093953;28;20048;-74
2023/03/02 05:22:42;;;;;;;28.83;14.60;;;;;;;-1.33;100.00;102536.53;5094220;28;20044;-74
2023/03/02 05:25:10;;;;;;;28.17;14.80;;;;;;;-1.34;100.00;102529.75;5094113;28;20087;-73
2023/03/02 05:27:37;;;;;;;32.40;14.48;;;;;;;-1.36;100.00;102529.31;5094080;28;20037;-74
2023/03/02 05:30:05;;;;;;;30.35;14.48;;;;;;;-1.38;100.00;102528.84;5094464;28;20080;-75
2023/03/02 05:32:31;;;;;;;29.92;13.55;;;;;;;-1.39;100.00;102533.31;5092902;28;20092;-74
2023/03/02 05:34:58;;;;;;;29.85;14.68;;;;;;;-1.41;100.00;102532.88;5095794;28;20083;-74
2023/03/02 05:37:24;;;;;;;28.92;13.48;;;;;;;-1.41;100.00;102530.25;5093835;28;20076;-75
2023/03/02 05:39:51;;;;;;;29.45;13.50;;;;;;;-1.41;100.00;102530.25;5094471;28;20489;-74
2023/03/02 05:42:18;;;;;;;28.98;14.45;;;;;;;-1.43;100.00;102524.56;5092049;28;20460;-75
2023/03/02 05:44:44;;;;;;;32.83;14.98;;;;;;;-1.44;100.00;102530.88;5093923;28;20517;-74
2023/03/02 05:47:11;;;;;;;32.13;15.35;;;;;;;-1.44;100.00;102530.09;5093229;28;20409;-74
2023/03/02 05:49:37;;;;;;;30.05;13.85;;;;;;;-1.46;100.00;102527.03;5093767;28;20044;-75
2023/03/02 05:52:04;;;;;;;34.95;17.02;;;;;;;-1.47;100.00;102525.50;5078949;28;20055;-75
2023/03/02 05:54:31;;;;;;;24.35;14.45;;;;;;;-1.49;100.00;102522.44;5073246;28;20045;-75
2023/03/02 05:56:57;;;;;;;34.45;15.43;;;;;;;-1.49;100.00;102523.22;5072893;28;20099;-75
2023/03/02 05:59:24;;;;;;;28.27;14.40;;;;;;;-1.51;100.00;102527.97;5072712;28;20052;-74
2023/03/02 06:01:57;;;;;;;32.60;14.82;;;;;;;-1.52;100.00;102531.66;5073297;28;20477;-75
2023/03/02 06:04:24;;;;;;;31.98;14.80;;;;;;;-1.52;100.00;102536.13;5072745;28;20052;-74
2023/03/02 06:06:51;;;;;;;34.00;14.45;;;;;;;-1.52;100.00;102546.56;5073345;28;20041;-75
2023/03/02 06:09:18;;;;;;;29.42;14.52;;;;;;;-1.54;100.00;102541.66;5072395;28;20126;-75
2023/03/02 06:11:44;;;;;;;30.17;14.93;;;;;;;-1.53;100.00;102534.59;5072767;28;20494;-75
2023/03/02 06:14:11;;;;;;;29.50;14.02;;;;;;;-1.54;100.00;102541.66;5072402;28;20075;-75
2023/03/02 06:16:38;;;;;;;38.97;15.55;;;;;;;-1.55;100.00;102542.75;5073115;28;20127;-75
2023/03/02 06:19:04;;;;;;;32.97;14.82;;;;;;;-1.55;100.00;102550.56;5072754;28;20043;-76
2023/03/02 06:21:31;;;;;;;34.35;15.73;;;;;;;-1.53;100.00;102550.25;5072694;28;20041;-75
2023/03/02 06:23:57;;;;;;;32.67;15.05;;;;;;;-1.56;100.00;102556.09;5072672;28;20041;-75
2023/03/02 06:26:24;;;;;;;38.58;16.17;;;;;;;-1.55;100.00;102558.41;5072108;28;20045;-75
2023/03/02 06:28:50;;;;;;;34.70;14.05;;;;;;;-1.56;100.00;102558.72;5072880;28;20059;-75
2023/03/02 06:31:20;;;;;;;35.83;16.65;;;;;;;-1.57;100.00;102549.34;5071926;28;20056;-75
2023/03/02 06:33:46;;;;;;;35.63;15.55;;;;;;;-1.57;100.00;102560.56;5072552;28;20049;-75
2023/03/02 06:36:15;;;;;;;30.95;16.00;;;;;;;-1.56;100.00;102561.34;5072123;28;20048;-75
2023/03/02 06:38:42;;;;;;;31.58;15.02;;;;;;;-1.56;100.00;102558.72;5072628;28;20107;-75
2023/03/02 06:41:08;;;;;;;33.58;15.27;;;;;;;-1.55;100.00;102562.88;5071307;28;20049;-74
2023/03/02 06:43:35;;;;;;;35.15;15.05;;;;;;;-1.55;100.00;102566.25;5072446;28;20441;-75
2023/03/02 06:46:02;;;;;;;30.42;15.18;;;;;;;-1.53;100.00;102563.31;5072257;28;20037;-74
2023/03/02 06:48:28;;;;;;;28.55;14.95;;;;;;;-1.52;100.00;102576.06;5072311;28;20056;-75
2023/03/02 06:50:54;;;;;;;36.33;16.30;;;;;;;-1.51;100.00;102563.78;5072650;28;20136;-76
2023/03/02 06:53:22;;;;;;;31.27;14.98;;;;;;;-1.50;100.00;102566.09;5071956;28;20904;-75
2023/03/02 06:55:49;;;;;;;36.20;15.82;;;;;;;-1.49;100.00;102565.00;5071779;28;20045;-75
2023/03/02 06:58:16;;;;;;;34.15;15.50;;;;;;;-1.47;100.00;102565.47;5071796;28;20486;-75
2023/03/02 07:00:43;;;;;;;32.65;15.40;;;;;;;-1.46;100.00;102572.22;5071082;28;20041;-75
2023/03/02 07:03:09;;;;;;;35.75;15.75;;;;;;;-1.43;100.00;102576.06;5071045;28;20384;-75
2023/03/02 07:05:36;;;;;;;30.83;14.48;;;;;;;-1.41;100.00;102566.81;5071525;28;20488;-77
2023/03/02 07:08:03;;;;;;;35.30;15.27;;;;;;;-1.38;100.00;102581.88;5072775;28;20037;-77
2023/03/02 07:10:29;;;;;;;32.75;14.82;;;;;;;-1.36;100.00;102579.72;5072053;28;20506;-78
2023/03/02 07:12:56;;;;;;;30.52;13.63;;;;;;;-1.33;100.00;102585.41;5072030;28;20556;-77
2023/03/02 07:15:22;;;;;;;35.88;14.93;;;;;;;-1.31;100.00;102583.25;5070194;28;20049;-77
2023/03/02 07:17:49;;;;;;;35.67;15.93;;;;;;;-1.29;100.00;102570.63;5071723;28;20529;-77
2023/03/02 07:20:17;;;;;;;29.23;14.55;;;;;;;-1.25;100.00;102576.78;5070081;28;20049;-77
2023/03/02 07:22:44;;;;;;;31.25;14.90;;;;;;;-1.21;100.00;102575.06;5072341;28;20049;-79
2023/03/02 07:25:11;;;;;;;31.25;15.98;;;;;;;-1.16;100.00;102575.63;5070805;28;20103;-76
2023/03/02 07:27:38;;;;;;;33.30;16.23;;;;;;;-1.06;100.00;102577.13;5072730;28;20498;-77
2023/03/02 07:30:06;;;;;;;31.50;15.40;;;;;;;-1.01;100.00;102580.34;5071377;28;20048;-77
2023/03/02 07:32:32;;;;;;;32.35;15.50;;;;;;;-0.97;100.00;102571.88;5072054;28;20053;-79
2023/03/02 07:34:59;;;;;;;32.42;15.38;;;;;;;-0.91;100.00;102573.22;5072973;28;20045;-80
2023/03/02 07:37:25;;;;;;;36.50;15.98;;;;;;;-0.86;100.00;102567.81;5072451;28;20049;-79
2023/03/02 07:39:53;;;;;;;29.85;14.60;;;;;;;-0.80;100.00;102566.53;5072327;28;20510;-79
2023/03/02 07:42:19;;;;;;;33.88;15.75;;;;;;;-0.75;100.00;102571.56;5071233;28;20482;-79
2023/03/02 07:44:53;;;;;;;34.67;15.20;;;;;;;-0.68;100.00;102564.75;5071234;28;20088;-79
2023/03/02 07:47:20;;;;;;;36.22;16.67;;;;;;;-0.59;100.00;102564.72;5070611;28;20536;-80
2023/03/02 07:49:46;;;;;;;31.33;15.50;;;;;;;-0.53;100.00;102563.44;5072584;28;20045;-79
2023/03/02 07:52:13;;;;;;;31.17;13.90;;;;;;;-0.50;100.00;102565.41;5071876;28;20056;-79
2023/03/02 07:54:40;;;;;;;27.42;14.57;;;;;;;-0.40;100.00;102572.88;5072993;28;20041;-79
2023/03/02 07:57:09;;;;;;;34.42;16.23;;;;;;;-0.36;100.00;102563.28;5075694;28;20073;-79
2023/03/02 07:59:36;;;;;;;26.08;13.93;;;;;;;-0.29;100.00;102559.41;5075831;28;20045;-78
2023/03/02 08:02:02;;;;;;;30.15;15.45;;;;;;;-0.20;100.00;102570.56;5075794;28;20045;-79
2023/03/02 08:04:29;;;;;;;33.60;15.32;;;;;;;-0.10;100.00;102572.78;5057222;28;20045;-78
2023/03/02 08:06:55;;;;;;;32.70;15.30;;;;;;;-0.03;100.00;102570.44;5075629;28;20512;-81
2023/03/02 08:09:22;;;;;;;29.70;15.43;;;;;;;0.05;100.00;102571.41;5073969;28;20053;-82
2023/03/02 08:11:49;;;;;;;32.97;15.63;;;;;;;0.11;100.00;102568.28;5074676;28;20438;-80
2023/03/02 08:14:18;;;;;;;30.45;14.45;;;;;;;0.19;100.00;102567.44;5057723;28;20586;-78
2023/03/02 08:16:45;;;;;;;31.10;14.85;;;;;;;0.24;100.00;102561.97;5075831;28;20071;-78
2023/03/02 08:19:11;;;;;;;29.30;14.10;;;;;;;0.31;99.58;102570.09;5075225;28;20466;-78
2023/03/02 08:21:38;;;;;;;29.15;13.60;;;;;;;0.39;99.12;102565.09;5074989;28;20082;-78
2023/03/02 08:24:05;;;;;;;26.02;13.32;;;;;;;0.49;98.79;102562.78;5075569;28;20053;-78
2023/03/02 08:26:32;;;;;;;26.17;13.13;;;;;;;0.58;97.95;102562.69;5073944;28;20581;-79
2023/03/02 08:28:59;;;;;;;27.33;13.95;;;;;;;0.66;97.45;102564.44;5057333;28;20045;-78
2023/03/02 08:31:25;;;;;;;25.63;13.90;;;;;;;0.75;97.53;102559.09;5075023;28;20041;-78
2023/03/02 08:33:52;;;;;;;28.98;13.88;;;;;;;0.80;96.32;102558.88;5074632;28;20103;-77
2023/03/02 08:36:19;;;;;;;25.42;13.15;;;;;;;0.91;96.27;102563.34;5073070;28;20048;-77
2023/03/02 08:38:46;;;;;;;25.40;13.20;;;;;;;1.01;95.84;102567.38;5075506;28;20099;-77
2023/03/02 08:41:19;;;;;;;23.70;12.57;;;;;;;1.09;95.83;102566.50;5074975;28;20124;-77
2023/03/02 08:43:46;;;;;;;25.45;13.57;;;;;;;1.17;95.14;102562.25;5075424;28;20041;-77
2023/03/02 08:46:16;;;;;;;26.50;13.70;;;;;;;1.26;94.69;102568.88;5074755;28;20099;-78
2023/03/02 08:48:43;;;;;;;22.67;12.48;;;;;;;1.31;94.31;102573.13;5075056;28;20128;-77
2023/03/02 08:51:15;;;;;;;28.98;13.35;;;;;;;1.39;93.93;102568.84;5074109;28;20498;-78
2023/03/02 08:53:45;;;;;;;31.70;13.55;;;;;;;1.47;93.48;102567.97;5073635;28;20075;-78
2023/03/02 08:56:18;;;;;;;28.58;13.38;;;;;;;1.55;93.31;102567.84;5074793;28;20121;-79
2023/03/02 08:58:45;;;;;;;26.92;13.23;;;;;;;1.60;92.80;102572.09;5073963;28;20060;-78
2023/03/02 09:01:28;;;;;;;24.48;11.45;;;;;;;1.62;92.51;102569.88;5074576;28;20086;-78
2023/03/02 09:03:56;;;;;;;26.05;13.43;;;;;;;1.63;91.86;102569.53;5074914;28;20052;-78
2023/03/02 09:06:23;;;;;;;23.73;12.85;;;;;;;1.67;91.75;102567.03;5073987;28;20072;-78
2023/03/02 09:08:50;;;;;;;27.77;14.18;;;;;;;1.76;91.84;102559.78;5074959;28;20049;-79
2023/03/02 09:11:17;;;;;;;27.83;12.63;;;;;;;1.84;91.78;102560.72;5073525;28;20037;-79
2023/03/02 09:13:43;;;;;;;26.67;13.43;;;;;;;1.95;91.92;102559.16;5073277;28;20133;-78
2023/03/02 09:16:12;;;;;;;24.90;12.52;;;;;;;2.04;90.85;102559.75;5073189;28;20419;-79
2023/03/02 09:18:39;;;;;;;26.85;12.95;;;;;;;2.03;90.49;102560.06;5074836;28;20049;-79
2023/03/02 09:21:05;;;;;;;24.15;13.27;;;;;;;2.06;90.75;102559.41;5072912;28;20111;-79
2023/03/02 09:23:34;;;;;;;21.83;11.60;;;;;;;2.12;90.17;102561.47;5072599;28;20572;-79
2023/03/02 09:26:01;;;;;;;23.13;11.45;;;;;;;2.10;89.59;102563.66;5075635;28;20037;-79
2023/03/02 09:28:28;;;;;;;26.25;13.13;;;;;;;2.17;89.61;102569.09;5074014;28;20841;-79
2023/03/02 09:31:00;;;;;;;23.77;12.20;;;;;;;2.23;89.15;102565.13;5074785;28;20049;-79
2023/03/02 09:33:29;;;;;;;26.33;12.38;;;;;;;2.30;89.08;102564.53;5074313;28;20125;-77
2023/03/02 09:35:56;;;;;;;28.23;13.63;;;;;;;2.36;89.06;102567.69;5074262;28;20525;-77
2023/03/02 09:38:23;;;;;;;27.13;12.73;;;;;;;2.41;88.72;102559.53;5073774;28;20044;-78
2023/03/02 09:40:58;;;;;;;21.70;11.85;;;;;;;2.47;88.38;102566.81;5074340;28;20045;-78
2023/03/02 09:43:37;;;;;;;25.00;12.02;;;;;;;2.54;87.99;102569.63;5073947;28;20429;-77
2023/03/02 09:46:22;;;;;;;26.48;13.02;;;;;;;2.59;87.63;102571.25;5074791;28;20044;-78
2023/03/02 09:49:10;;;;;;;21.80;11.75;;;;;;;2.74;87.78;102567.09;5071852;28;20079;-77
2023/03/02 09:52:15;;;;;;;27.17;12.65;;;;;;;2.80;87.31;102565.72;5074253;28;20482;-78
2023/03/02 09:54:42;;;;;;;25.02;12.82;;;;;;;2.84;87.02;102562.06;5085665;28;20049;-76
2023/03/02 09:57:24;;;;;;;21.70;12.73;;;;;;;2.94;86.97;102566.78;5073384;28;20053;-82
2023/03/02 10:00:05;;;;;;;18.40;10.35;;;;;;;3.04;85.88;102559.47;5074099;28;20098;-78
2023/03/02 10:02:46;;;;;;;23.35;11.95;;;;;;;3.13;85.17;102570.59;5073464;28;20500;-78
2023/03/02 10:05:23;;;;;;;22.67;11.52;;;;;;;3.21;84.65;102567.75;5071837;28;20502;-78
2023/03/02 10:07:50;;;;;;;23.95;12.32;;;;;;;3.28;84.72;102569.75;5072663;28;20099;-79
2023/03/02 10:10:21;;;;;;;25.15;12.52;;;;;;;3.38;84.65;102571.09;5073192;28;20044;-78
2023/03/02 10:13:17;;;;;;;21.85;11.73;;;;;;;3.43;83.88;102573.47;5073973;28;20045;-78
2023/03/02 10:16:06;;;;;;;21.42;11.50;;;;;;;3.47;83.72;102572.44;5054947;28;20115;-80
2023/03/02 10:18:44;;;;;;;21.40;11.30;;;;;;;3.59;83.22;102576.81;5072506;28;20558;-77
2023/03/02 10:21:10;;;;;;;57.72;28.52;;;;;;;3.70;83.04;102567.22;5071065;28;20045;-77
2023/03/02 10:23:59;;;;;;;23.45;12.07;;;;;;;3.81;83.09;102565.56;5073337;28;20045;-77
2023/03/02 10:26:40;;;;;;;23.55;11.88;;;;;;;3.87;82.19;102561.53;5073115;28;20510;-77
2023/03/02 10:29:17;;;;;;;19.27;11.27;;;;;;;3.90;81.48;102555.56;5071014;28;20498;-80
2023/03/02 10:31:45;;;;;;;25.85;10.32;;;;;;;3.95;80.85;102568.47;5072926;28;20095;-79
2023/03/02 10:34:13;;;;;;;20.38;10.80;;;;;;;4.00;80.02;102562.88;5072564;28;20060;-79
2023/03/02 10:36:43;;;;;;;23.02;10.98;;;;;;;4.11;80.02;102562.31;5073327;28;20120;-79
2023/03/02 10:39:13;;;;;;;25.08;11.88;;;;;;;4.22;80.06;102560.63;5073226;28;20068;-78
2023/03/02 10:41:52;;;;;;;18.50;10.10;;;;;;;4.29;79.37;102558.88;5071734;28;20383;-78
2023/03/02 10:44:18;;;;;;;19.95;10.63;;;;;;;4.33;78.40;102553.66;5072955;28;20363;-78
2023/03/02 10:46:45;;;;;;;25.60;11.07;;;;;;;4.40;77.96;102547.75;5072589;28;20575;-80
2023/03/02 10:49:23;;;;;;;18.08;9.00;;;;;;;4.45;77.29;102556.09;5067599;28;20045;-77
2023/03/02 10:52:17;;;;;;;18.33;10.30;;;;;;;4.50;77.48;102550.53;5105430;27;20057;-78
2023/03/02 10:54:44;;;;;;;26.00;10.77;;;;;;;4.58;76.72;102544.25;5071830;28;20111;-78
2023/03/02 10:57:35;;;;;;;17.67;9.73;;;;;;;4.70;76.34;102545.94;5072740;28;20056;-79
2023/03/02 11:00:23;;;;;;;17.52;10.35;;;;;;;4.73;76.13;102547.09;5055012;28;20128;-79
2023/03/02 11:02:51;;;;;;;32.55;10.07;;;;;;;4.77;75.50;102535.50;5084199;28;20051;-78
2023/03/02 11:05:22;;;;;;;15.50;9.88;;;;;;;4.89;74.87;102540.53;5075461;28;20110;-78
2023/03/02 11:07:59;;;;;;;16.15;9.80;;;;;;;4.99;74.25;102529.38;5070937;28;20494;-78
2023/03/02 11:10:35;;;;;;;16.20;9.27;;;;;;;5.04;72.95;102533.59;5072599;28;20049;-80
2023/03/02 11:13:15;;;;;;;14.55;8.77;;;;;;;5.14;72.66;102532.97;5088238;28;20040;-77
2023/03/02 11:15:50;;;;;;;18.60;9.32;;;;;;;5.28;73.38;102521.81;5070777;28;20482;-79
2023/03/02 11:18:29;;;;;;;13.35;8.88;;;;;;;5.41;73.10;102528.38;5072483;28;20515;-79